sensor_id;sensor_type;location;lat;lon;timestamp;pressure;altitude;pressure_sealevel;temperature;humidity
22753;BME280;11543;43.144;24.684;2023-03-24T00:00:14;98945.22;;;9.88;72.93
22753;BME280;11543;43.144;24.684;2023-03-24T00:02:41;98942.94;;;9.93;72.47
22753;BME280;11543;43.144;24.684;2023-03-24T00:05:10;98943.63;;;9.95;72.66
22753;BME280;11543;43.144;24.684;2023-03-24T00:07:37;98944.34;;;9.97;72.05
22753;BME280;11543;43.144;24.684;2023-03-24T00:10:07;98940.97;;;9.95;71.85
22753;BME280;11543;43.144;24.684;2023-03-24T00:12:37;98925.78;;;9.86;71.50
22753;BME280;11543;43.144;24.684;2023-03-24T00:15:08;98915.66;;;9.80;71.60
22753;BME280;11543;43.144;24.684;2023-03-24T00:17:35;98927.53;;;9.68;71.21
22753;BME280;11543;43.144;24.684;2023-03-24T00:20:12;98938.03;;;9.42;71.45
22753;BME280;11543;43.144;24.684;2023-03-24T00:22:44;98931.09;;;9.02;70.72
22753;BME280;11543;43.144;24.684;2023-03-24T00:25:19;98909.69;;;8.92;72.13
22753;BME280;11543;43.144;24.684;2023-03-24T00:27:45;98918.41;;;9.04;72.65
22753;BME280;11543;43.144;24.684;2023-03-24T00:30:13;98930.50;;;9.18;73.00
22753;BME280;11543;43.144;24.684;2023-03-24T00:32:39;98899.25;;;9.09;72.82
22753;BME280;11543;43.144;24.684;2023-03-24T00:35:06;98933.56;;;9.33;72.66
22753;BME280;11543;43.144;24.684;2023-03-24T00:37:34;98902.03;;;9.17;72.82
22753;BME280;11543;43.144;24.684;2023-03-24T00:40:03;98929.31;;;9.40;73.24
22753;BME280;11543;43.144;24.684;2023-03-24T00:42:32;98892.16;;;9.27;72.98
22753;BME280;11543;43.144;24.684;2023-03-24T00:44:58;98927.88;;;9.45;72.97
22753;BME280;11543;43.144;24.684;2023-03-24T00:47:23;98898.19;;;9.29;72.92
22753;BME280;11543;43.144;24.684;2023-03-24T00:49:51;98912.75;;;9.17;73.17
22753;BME280;11543;43.144;24.684;2023-03-24T00:52:20;98921.88;;;9.24;73.70
22753;BME280;11543;43.144;24.684;2023-03-24T00:54:47;98924.81;;;9.31;73.67
22753;BME280;11543;43.144;24.684;2023-03-24T00:57:14;98927.25;;;9.24;73.54
22753;BME280;11543;43.144;24.684;2023-03-24T00:59:51;98904.31;;;9.02;74.33
22753;BME280;11543;43.144;24.684;2023-03-24T01:02:18;98899.28;;;8.89;74.50
22753;BME280;11543;43.144;24.684;2023-03-24T01:04:50;98912.25;;;8.84;74.51
22753;BME280;11543;43.144;24.684;2023-03-24T01:07:19;98914.22;;;8.82;74.91
22753;BME280;11543;43.144;24.684;2023-03-24T01:09:46;98909.97;;;8.89;75.05
22753;BME280;11543;43.144;24.684;2023-03-24T01:12:28;98913.63;;;9.08;74.79
22753;BME280;11543;43.144;24.684;2023-03-24T01:14:54;98885.75;;;9.01;74.73
22753;BME280;11543;43.144;24.684;2023-03-24T01:17:21;98907.09;;;9.20;73.94
22753;BME280;11543;43.144;24.684;2023-03-24T01:19:53;98892.19;;;9.17;73.61
22753;BME280;11543;43.144;24.684;2023-03-24T01:22:19;98915.94;;;9.30;73.55
22753;BME280;11543;43.144;24.684;2023-03-24T01:24:45;98903.97;;;9.34;73.37
22753;BME280;11543;43.144;24.684;2023-03-24T01:27:12;98902.81;;;9.37;73.06
22753;BME280;11543;43.144;24.684;2023-03-24T01:29:38;98910.72;;;9.38;72.80
22753;BME280;11543;43.144;24.684;2023-03-24T01:32:04;98908.03;;;9.38;72.70
22753;BME280;11543;43.144;24.684;2023-03-24T01:34:31;98902.28;;;9.33;72.27
22753;BME280;11543;43.144;24.684;2023-03-24T01:36:57;98916.94;;;9.29;72.48
22753;BME280;11543;43.144;24.684;2023-03-24T01:39:23;98897.03;;;8.94;72.53
22753;BME280;11543;43.144;24.684;2023-03-24T01:41:49;98900.00;;;8.72;72.75
22753;BME280;11543;43.144;24.684;2023-03-24T01:46:49;98913.63;;;8.50;73.95
22753;BME280;11543;43.144;24.684;2023-03-24T01:49:15;98903.72;;;8.21;74.26
22753;BME280;11543;43.144;24.684;2023-03-24T01:51:43;98903.03;;;8.19;75.42
22753;BME280;11543;43.144;24.684;2023-03-24T01:54:20;98909.94;;;8.31;76.17
22753;BME280;11543;43.144;24.684;2023-03-24T01:56:54;98913.59;;;8.21;76.42
22753;BME280;11543;43.144;24.684;2023-03-24T01:59:25;98899.50;;;8.09;76.60
22753;BME280;11543;43.144;24.684;2023-03-24T02:01:52;98904.28;;;8.06;77.13
22753;BME280;11543;43.144;24.684;2023-03-24T02:04:34;98884.25;;;7.81;77.52
22753;BME280;11543;43.144;24.684;2023-03-24T02:07:11;98895.97;;;7.99;77.84
22753;BME280;11543;43.144;24.684;2023-03-24T02:09:38;98898.91;;;7.96;77.97
22753;BME280;11543;43.144;24.684;2023-03-24T02:12:03;98905.13;;;8.06;77.84
22753;BME280;11543;43.144;24.684;2023-03-24T02:14:30;98897.50;;;7.92;77.49
22753;BME280;11543;43.144;24.684;2023-03-24T02:17:14;98943.66;;;8.13;77.82
22753;BME280;11543;43.144;24.684;2023-03-24T02:39:57;98885.22;;;8.68;75.69
22753;BME280;11543;43.144;24.684;2023-03-24T02:45:35;98898.72;;;8.96;75.24
22753;BME280;11543;43.144;24.684;2023-03-24T02:50:59;98903.19;;;9.05;74.86
22753;BME280;11543;43.144;24.684;2023-03-24T03:01:46;98865.22;;;8.72;75.69
22753;BME280;11543;43.144;24.684;2023-03-24T03:04:27;98876.06;;;8.80;75.70
22753;BME280;11543;43.144;24.684;2023-03-24T03:07:01;98895.47;;;8.92;75.10
22753;BME280;11543;43.144;24.684;2023-03-24T03:09:32;98894.34;;;8.94;74.96
22753;BME280;11543;43.144;24.684;2023-03-24T03:11:59;98865.38;;;8.80;74.83
22753;BME280;11543;43.144;24.684;2023-03-24T03:14:34;98884.06;;;9.00;74.68
22753;BME280;11543;43.144;24.684;2023-03-24T03:17:06;98887.44;;;9.02;74.61
22753;BME280;11543;43.144;24.684;2023-03-24T03:19:37;98852.69;;;8.82;74.27
22753;BME280;11543;43.144;24.684;2023-03-24T03:22:15;98875.38;;;8.78;74.49
22753;BME280;11543;43.144;24.684;2023-03-24T03:24:44;98866.19;;;8.61;74.76
22753;BME280;11543;43.144;24.684;2023-03-24T03:27:27;98860.84;;;8.52;75.69
22753;BME280;11543;43.144;24.684;2023-03-24T03:30:03;98860.31;;;8.39;75.71
22753;BME280;11543;43.144;24.684;2023-03-24T03:32:36;98862.69;;;8.42;76.38
22753;BME280;11543;43.144;24.684;2023-03-24T03:40:35;98864.81;;;8.67;76.07
22753;BME280;11543;43.144;24.684;2023-03-24T03:43:03;98857.06;;;8.64;75.41
22753;BME280;11543;43.144;24.684;2023-03-24T03:45:29;98854.81;;;8.69;75.47
22753;BME280;11543;43.144;24.684;2023-03-24T03:47:55;98862.41;;;8.74;75.28
22753;BME280;11543;43.144;24.684;2023-03-24T03:50:21;98860.72;;;8.73;74.71
22753;BME280;11543;43.144;24.684;2023-03-24T03:52:46;98870.00;;;8.78;74.29
22753;BME280;11543;43.144;24.684;2023-03-24T03:55:12;98892.78;;;8.92;74.10
22753;BME280;11543;43.144;24.684;2023-03-24T03:57:38;98860.44;;;8.76;74.12
22753;BME280;11543;43.144;24.684;2023-03-24T04:00:07;98864.38;;;8.62;74.42
22753;BME280;11543;43.144;24.684;2023-03-24T04:05:35;98882.09;;;8.63;74.25
22753;BME280;11543;43.144;24.684;2023-03-24T04:08:25;98890.00;;;8.74;73.82
22753;BME280;11543;43.144;24.684;2023-03-24T04:13:48;98880.38;;;8.23;73.46
22753;BME280;11543;43.144;24.684;2023-03-24T04:16:33;98905.97;;;8.16;73.80
22753;BME280;11543;43.144;24.684;2023-03-24T04:22:16;98912.00;;;7.99;75.19
22753;BME280;11543;43.144;24.684;2023-03-24T04:27:43;98910.97;;;7.81;76.01
22753;BME280;11543;43.144;24.684;2023-03-24T04:32:48;98887.00;;;7.70;77.42
22753;BME280;11543;43.144;24.684;2023-03-24T04:35:35;98897.22;;;7.95;77.27
22753;BME280;11543;43.144;24.684;2023-03-24T04:38:08;98916.94;;;8.13;77.07
22753;BME280;11543;43.144;24.684;2023-03-24T04:40:36;98882.59;;;7.99;76.64
22753;BME280;11543;43.144;24.684;2023-03-24T04:43:08;98874.47;;;8.10;76.37
22753;BME280;11543;43.144;24.684;2023-03-24T04:45:35;98897.84;;;8.27;76.01
22753;BME280;11543;43.144;24.684;2023-03-24T04:48:03;98908.56;;;8.37;75.71
22753;BME280;11543;43.144;24.684;2023-03-24T04:50:39;98924.47;;;8.58;75.71
22753;BME280;11543;43.144;24.684;2023-03-24T04:53:06;98917.00;;;8.52;75.39
22753;BME280;11543;43.144;24.684;2023-03-24T04:58:22;98920.81;;;8.59;75.32
22753;BME280;11543;43.144;24.684;2023-03-24T05:00:49;98933.38;;;8.68;75.26
22753;BME280;11543;43.144;24.684;2023-03-24T05:03:17;98928.72;;;8.70;75.34
22753;BME280;11543;43.144;24.684;2023-03-24T05:05:44;98896.75;;;8.59;75.34
22753;BME280;11543;43.144;24.684;2023-03-24T05:08:11;98877.88;;;8.51;75.31
22753;BME280;11543;43.144;24.684;2023-03-24T05:10:37;98886.34;;;8.56;75.53
22753;BME280;11543;43.144;24.684;2023-03-24T05:13:04;98903.25;;;8.76;75.47
22753;BME280;11543;43.144;24.684;2023-03-24T05:15:31;98898.44;;;8.79;75.37
22753;BME280;11543;43.144;24.684;2023-03-24T05:17:56;98904.06;;;8.86;75.53
22753;BME280;11543;43.144;24.684;2023-03-24T05:20:23;98932.91;;;9.02;75.41
22753;BME280;11543;43.144;24.684;2023-03-24T05:22:49;98927.16;;;8.97;75.28
22753;BME280;11543;43.144;24.684;2023-03-24T05:25:16;98921.25;;;8.83;75.21
22753;BME280;11543;43.144;24.684;2023-03-24T05:27:43;98914.50;;;8.70;75.13
22753;BME280;11543;43.144;24.684;2023-03-24T05:30:09;98918.31;;;8.67;75.95
22753;BME280;11543;43.144;24.684;2023-03-24T05:32:35;98927.56;;;8.63;76.36
22753;BME280;11543;43.144;24.684;2023-03-24T05:35:02;98935.88;;;8.60;76.65
22753;BME280;11543;43.144;24.684;2023-03-24T05:37:28;98907.16;;;8.43;76.88
22753;BME280;11543;43.144;24.684;2023-03-24T05:39:54;98922.78;;;8.57;77.04
22753;BME280;11543;43.144;24.684;2023-03-24T05:42:20;98933.63;;;8.65;77.08
22753;BME280;11543;43.144;24.684;2023-03-24T05:44:45;98888.16;;;8.46;77.29
22753;BME280;11543;43.144;24.684;2023-03-24T05:47:12;98902.22;;;8.48;77.33
22753;BME280;11543;43.144;24.684;2023-03-24T05:49:41;98922.78;;;8.57;77.74
22753;BME280;11543;43.144;24.684;2023-03-24T05:52:07;98918.97;;;8.50;77.98
22753;BME280;11543;43.144;24.684;2023-03-24T05:54:34;98918.41;;;8.56;78.19
22753;BME280;11543;43.144;24.684;2023-03-24T05:57:00;98937.56;;;8.61;78.48
22753;BME280;11543;43.144;24.684;2023-03-24T05:59:27;98918.13;;;8.59;78.90
22753;BME280;11543;43.144;24.684;2023-03-24T06:01:52;98903.78;;;8.60;78.81
22753;BME280;11543;43.144;24.684;2023-03-24T06:04:21;98945.75;;;8.88;78.41
22753;BME280;11543;43.144;24.684;2023-03-24T06:06:47;98932.50;;;8.87;78.65
22753;BME280;11543;43.144;24.684;2023-03-24T06:09:13;98934.75;;;8.91;79.08
22753;BME280;11543;43.144;24.684;2023-03-24T06:11:42;98948.13;;;9.11;78.68
22753;BME280;11543;43.144;24.684;2023-03-24T06:14:08;98954.69;;;9.36;78.35
22753;BME280;11543;43.144;24.684;2023-03-24T06:16:33;98956.34;;;9.46;77.82
22753;BME280;11543;43.144;24.684;2023-03-24T06:19:06;98947.63;;;9.54;77.53
22753;BME280;11543;43.144;24.684;2023-03-24T06:21:33;98954.63;;;9.65;77.49
22753;BME280;11543;43.144;24.684;2023-03-24T06:23:59;98955.31;;;9.67;77.77
22753;BME280;11543;43.144;24.684;2023-03-24T06:26:25;98923.06;;;9.58;77.75
22753;BME280;11543;43.144;24.684;2023-03-24T06:28:51;98943.44;;;9.79;78.11
22753;BME280;11543;43.144;24.684;2023-03-24T06:31:18;98948.31;;;9.93;78.20
22753;BME280;11543;43.144;24.684;2023-03-24T06:33:46;98937.47;;;9.85;78.13
22753;BME280;11543;43.144;24.684;2023-03-24T06:36:12;98963.75;;;10.09;77.90
22753;BME280;11543;43.144;24.684;2023-03-24T06:38:39;98941.66;;;9.97;78.31
22753;BME280;11543;43.144;24.684;2023-03-24T06:41:05;98958.63;;;10.15;78.48
22753;BME280;11543;43.144;24.684;2023-03-24T06:43:31;98954.66;;;10.19;78.36
22753;BME280;11543;43.144;24.684;2023-03-24T06:45:57;98920.91;;;9.99;78.61
22753;BME280;11543;43.144;24.684;2023-03-24T06:48:23;98959.59;;;10.24;79.03
22753;BME280;11543;43.144;24.684;2023-03-24T06:50:50;98907.09;;;9.94;79.38
22753;BME280;11543;43.144;24.684;2023-03-24T06:53:16;98912.34;;;10.13;79.40
22753;BME280;11543;43.144;24.684;2023-03-24T06:55:42;98937.09;;;10.35;79.28
22753;BME280;11543;43.144;24.684;2023-03-24T06:58:09;98950.78;;;10.59;79.62
22753;BME280;11543;43.144;24.684;2023-03-24T07:00:36;98940.44;;;10.64;79.17
22753;BME280;11543;43.144;24.684;2023-03-24T07:03:05;98933.28;;;10.73;79.31
22753;BME280;11543;43.144;24.684;2023-03-24T07:05:32;98944.94;;;10.81;79.34
22753;BME280;11543;43.144;24.684;2023-03-24T07:08:02;98939.28;;;10.84;79.96
22753;BME280;11543;43.144;24.684;2023-03-24T07:10:28;98917.41;;;10.79;80.55
22753;BME280;11543;43.144;24.684;2023-03-24T07:12:54;98923.06;;;10.94;80.72
22753;BME280;11543;43.144;24.684;2023-03-24T07:15:20;98931.72;;;11.06;81.08
22753;BME280;11543;43.144;24.684;2023-03-24T07:17:46;98921.72;;;11.16;81.14
22753;BME280;11543;43.144;24.684;2023-03-24T07:20:11;98905.63;;;11.16;81.06
22753;BME280;11543;43.144;24.684;2023-03-24T07:22:37;98926.63;;;11.38;81.27
22753;BME280;11543;43.144;24.684;2023-03-24T07:25:04;98916.59;;;11.48;81.12
22753;BME280;11543;43.144;24.684;2023-03-24T07:27:31;98943.69;;;11.81;81.22
22753;BME280;11543;43.144;24.684;2023-03-24T07:30:00;98908.47;;;11.66;81.03
22753;BME280;11543;43.144;24.684;2023-03-24T07:32:28;98902.59;;;11.71;81.48
22753;BME280;11543;43.144;24.684;2023-03-24T07:34:54;98892.22;;;11.76;81.37
22753;BME280;11543;43.144;24.684;2023-03-24T07:37:21;98938.16;;;12.17;81.07
22753;BME280;11543;43.144;24.684;2023-03-24T07:39:47;98941.22;;;12.38;81.22
22753;BME280;11543;43.144;24.684;2023-03-24T07:42:13;98887.88;;;12.17;81.06
22753;BME280;11543;43.144;24.684;2023-03-24T07:44:38;98904.25;;;12.48;80.99
22753;BME280;11543;43.144;24.684;2023-03-24T07:47:04;98923.47;;;12.69;81.10
22753;BME280;11543;43.144;24.684;2023-03-24T07:49:30;98912.03;;;12.75;80.90
22753;BME280;11543;43.144;24.684;2023-03-24T07:51:56;98919.81;;;13.03;80.57
22753;BME280;11543;43.144;24.684;2023-03-24T07:54:23;98918.44;;;13.15;80.36
22753;BME280;11543;43.144;24.684;2023-03-24T07:56:49;98914.41;;;13.35;80.45
22753;BME280;11543;43.144;24.684;2023-03-24T07:59:14;98924.78;;;13.63;80.25
22753;BME280;11543;43.144;24.684;2023-03-24T08:01:44;98906.22;;;13.76;79.36
22753;BME280;11543;43.144;24.684;2023-03-24T08:04:32;98880.06;;;13.85;78.48
22753;BME280;11543;43.144;24.684;2023-03-24T08:06:59;98868.69;;;14.06;76.78
22753;BME280;11543;43.144;24.684;2023-03-24T08:09:25;98864.53;;;14.26;75.77
22753;BME280;11543;43.144;24.684;2023-03-24T08:15:08;98861.34;;;14.76;71.65
22753;BME280;11543;43.144;24.684;2023-03-24T08:24:34;98876.47;;;15.23;67.84
22753;BME280;11543;43.144;24.684;2023-03-24T08:27:41;98864.25;;;15.27;67.32
22753;BME280;11543;43.144;24.684;2023-03-24T08:30:17;98848.13;;;15.34;66.34
22753;BME280;11543;43.144;24.684;2023-03-24T08:32:51;98848.72;;;15.44;66.12
22753;BME280;11543;43.144;24.684;2023-03-24T08:35:38;98857.25;;;15.70;65.70
22753;BME280;11543;43.144;24.684;2023-03-24T08:38:04;98844.72;;;15.84;66.33
22753;BME280;11543;43.144;24.684;2023-03-24T08:40:30;98841.34;;;15.97;65.16
22753;BME280;11543;43.144;24.684;2023-03-24T08:43:00;98833.38;;;16.10;63.56
22753;BME280;11543;43.144;24.684;2023-03-24T08:48:14;98859.13;;;16.56;59.56
22753;BME280;11543;43.144;24.684;2023-03-24T08:50:40;98835.97;;;16.54;57.83
22753;BME280;11543;43.144;24.684;2023-03-24T08:53:07;98857.09;;;16.80;57.71
22753;BME280;11543;43.144;24.684;2023-03-24T08:55:33;98875.91;;;17.09;56.00
22753;BME280;11543;43.144;24.684;2023-03-24T08:58:01;98830.88;;;16.87;56.95
22753;BME280;11543;43.144;24.684;2023-03-24T09:00:27;98834.75;;;16.99;57.99
22753;BME280;11543;43.144;24.684;2023-03-24T09:02:54;98878.03;;;17.42;58.48
22753;BME280;11543;43.144;24.684;2023-03-24T09:05:21;98851.56;;;17.44;58.39
22753;BME280;11543;43.144;24.684;2023-03-24T09:07:48;98866.59;;;17.74;56.50
22753;BME280;11543;43.144;24.684;2023-03-24T09:10:14;98846.13;;;17.72;56.95
22753;BME280;11543;43.144;24.684;2023-03-24T09:12:40;98837.22;;;17.85;54.52
22753;BME280;11543;43.144;24.684;2023-03-24T09:15:07;98848.16;;;18.11;54.56
22753;BME280;11543;43.144;24.684;2023-03-24T09:17:34;98840.50;;;18.21;52.88
22753;BME280;11543;43.144;24.684;2023-03-24T09:20:00;98856.25;;;18.45;53.62
22753;BME280;11543;43.144;24.684;2023-03-24T09:22:26;98859.44;;;18.62;53.32
22753;BME280;11543;43.144;24.684;2023-03-24T09:24:52;98839.59;;;18.68;52.25
22753;BME280;11543;43.144;24.684;2023-03-24T09:27:17;98837.53;;;18.77;52.91
22753;BME280;11543;43.144;24.684;2023-03-24T09:29:43;98828.53;;;18.83;52.16
22753;BME280;11543;43.144;24.684;2023-03-24T09:32:08;98850.53;;;19.15;50.75
22753;BME280;11543;43.144;24.684;2023-03-24T09:34:35;98850.31;;;19.23;50.25
22753;BME280;11543;43.144;24.684;2023-03-24T09:37:05;98810.97;;;19.05;50.54
22753;BME280;11543;43.144;24.684;2023-03-24T09:39:34;98823.94;;;19.30;51.46
22753;BME280;11543;43.144;24.684;2023-03-24T09:42:03;98814.69;;;19.44;49.43
22753;BME280;11543;43.144;24.684;2023-03-24T09:44:36;98825.97;;;19.67;48.24
22753;BME280;11543;43.144;24.684;2023-03-24T09:47:27;98835.56;;;19.77;49.08
22753;BME280;11543;43.144;24.684;2023-03-24T09:49:57;98811.25;;;19.82;49.16
22753;BME280;11543;43.144;24.684;2023-03-24T09:52:34;98824.59;;;20.03;46.97
22753;BME280;11543;43.144;24.684;2023-03-24T09:55:03;98818.28;;;20.09;46.92
22753;BME280;11543;43.144;24.684;2023-03-24T09:57:35;98836.25;;;20.23;46.58
22753;BME280;11543;43.144;24.684;2023-03-24T10:00:31;98793.53;;;20.17;46.81
22753;BME280;11543;43.144;24.684;2023-03-24T10:03:09;98826.91;;;20.51;46.45
22753;BME280;11543;43.144;24.684;2023-03-24T10:05:48;98797.63;;;20.40;44.54
22753;BME280;11543;43.144;24.684;2023-03-24T10:08:50;98829.31;;;20.65;43.39
22753;BME280;11543;43.144;24.684;2023-03-24T10:16:52;98805.34;;;20.74;43.79
22753;BME280;11543;43.144;24.684;2023-03-24T10:28:03;98805.03;;;21.14;41.10
22753;BME280;11543;43.144;24.684;2023-03-24T10:30:36;98798.41;;;21.28;41.32
22753;BME280;11543;43.144;24.684;2023-03-24T10:33:05;98774.13;;;21.20;40.65
22753;BME280;11543;43.144;24.684;2023-03-24T10:35:36;98793.44;;;21.43;41.36
22753;BME280;11543;43.144;24.684;2023-03-24T10:38:15;98790.41;;;21.51;40.55
22753;BME280;11543;43.144;24.684;2023-03-24T10:40:41;98788.28;;;21.53;40.19
22753;BME280;11543;43.144;24.684;2023-03-24T10:43:08;98780.31;;;21.52;40.16
22753;BME280;11543;43.144;24.684;2023-03-24T10:45:35;98759.78;;;21.49;42.34
22753;BME280;11543;43.144;24.684;2023-03-24T10:48:02;98767.13;;;21.67;42.72
22753;BME280;11543;43.144;24.684;2023-03-24T10:50:32;98771.16;;;21.83;40.18
22753;BME280;11543;43.144;24.684;2023-03-24T10:52:59;98783.13;;;22.00;40.29
22753;BME280;11543;43.144;24.684;2023-03-24T10:55:30;98778.50;;;22.01;40.05
22753;BME280;11543;43.144;24.684;2023-03-24T10:57:59;98773.84;;;22.01;41.33
22753;BME280;11543;43.144;24.684;2023-03-24T11:00:28;98767.50;;;22.07;40.53
22753;BME280;11543;43.144;24.684;2023-03-24T11:02:57;98780.63;;;22.17;40.65
22753;BME280;11543;43.144;24.684;2023-03-24T11:05:29;98777.78;;;22.23;40.75
22753;BME280;11543;43.144;24.684;2023-03-24T11:07:59;98765.66;;;22.19;40.93
22753;BME280;11543;43.144;24.684;2023-03-24T11:10:34;98748.16;;;22.09;40.36
22753;BME280;11543;43.144;24.684;2023-03-24T11:13:00;98756.25;;;22.15;41.57
22753;BME280;11543;43.144;24.684;2023-03-24T11:15:37;98731.19;;;22.18;41.45
22753;BME280;11543;43.144;24.684;2023-03-24T11:18:16;98755.63;;;22.43;40.90
22753;BME280;11543;43.144;24.684;2023-03-24T11:20:45;98745.06;;;22.47;39.11
22753;BME280;11543;43.144;24.684;2023-03-24T11:25:43;98748.38;;;22.49;39.33
22753;BME280;11543;43.144;24.684;2023-03-24T11:28:24;98731.25;;;22.42;39.24
22753;BME280;11543;43.144;24.684;2023-03-24T11:30:52;98717.00;;;22.40;39.20
22753;BME280;11543;43.144;24.684;2023-03-24T11:33:26;98710.94;;;22.38;39.90
22753;BME280;11543;43.144;24.684;2023-03-24T11:35:52;98710.59;;;22.46;39.60
22753;BME280;11543;43.144;24.684;2023-03-24T11:38:28;98688.34;;;22.42;40.05
22753;BME280;11543;43.144;24.684;2023-03-24T11:40:56;98705.41;;;22.56;38.88
22753;BME280;11543;43.144;24.684;2023-03-24T11:43:27;98708.88;;;22.75;36.87
22753;BME280;11543;43.144;24.684;2023-03-24T11:48:54;98702.38;;;22.87;36.80
22753;BME280;11543;43.144;24.684;2023-03-24T11:51:30;98704.81;;;22.77;36.14
22753;BME280;11543;43.144;24.684;2023-03-24T11:53:58;98704.97;;;22.82;37.04
22753;BME280;11543;43.144;24.684;2023-03-24T11:59:40;98711.03;;;22.84;37.63
22753;BME280;11543;43.144;24.684;2023-03-24T12:02:16;98706.88;;;22.94;37.98
22753;BME280;11543;43.144;24.684;2023-03-24T12:05:02;98713.06;;;23.01;37.87
22753;BME280;11543;43.144;24.684;2023-03-24T12:08:21;98684.88;;;23.00;38.26
22753;BME280;11543;43.144;24.684;2023-03-24T12:11:05;98705.41;;;23.26;37.34
22753;BME280;11543;43.144;24.684;2023-03-24T12:13:35;98699.59;;;23.46;34.91
22753;BME280;11543;43.144;24.684;2023-03-24T12:21:47;98684.09;;;23.63;34.22
22753;BME280;11543;43.144;24.684;2023-03-24T12:27:14;98681.44;;;23.68;33.37
22753;BME280;11543;43.144;24.684;2023-03-24T12:41:12;98655.38;;;23.66;33.22
22753;BME280;11543;43.144;24.684;2023-03-24T12:46:43;98647.53;;;23.58;32.90
22753;BME280;11543;43.144;24.684;2023-03-24T12:55:11;98658.22;;;23.71;32.92
22753;BME280;11543;43.144;24.684;2023-03-24T12:57:53;98642.38;;;23.73;32.22
22753;BME280;11543;43.144;24.684;2023-03-24T13:00:24;98651.75;;;23.77;33.15
22753;BME280;11543;43.144;24.684;2023-03-24T13:02:55;98649.44;;;23.86;33.04
22753;BME280;11543;43.144;24.684;2023-03-24T13:05:41;98627.50;;;23.69;32.96
22753;BME280;11543;43.144;24.684;2023-03-24T13:08:14;98623.19;;;23.73;32.38
22753;BME280;11543;43.144;24.684;2023-03-24T13:10:43;98626.16;;;23.71;33.29
22753;BME280;11543;43.144;24.684;2023-03-24T13:13:28;98631.00;;;23.81;32.75
22753;BME280;11543;43.144;24.684;2023-03-24T13:16:22;98629.53;;;23.90;32.26
22753;BME280;11543;43.144;24.684;2023-03-24T13:18:54;98589.88;;;23.64;32.58
22753;BME280;11543;43.144;24.684;2023-03-24T13:21:24;98624.53;;;23.87;33.70
22753;BME280;11543;43.144;24.684;2023-03-24T13:24:02;98607.28;;;23.87;33.16
22753;BME280;11543;43.144;24.684;2023-03-24T13:32:03;98581.88;;;23.91;35.27
22753;BME280;11543;43.144;24.684;2023-03-24T13:37:05;98592.69;;;24.14;33.87
22753;BME280;11543;43.144;24.684;2023-03-24T13:39:33;98556.81;;;23.99;34.52
22753;BME280;11543;43.144;24.684;2023-03-24T13:42:00;98547.66;;;24.10;33.84
22753;BME280;11543;43.144;24.684;2023-03-24T13:47:05;98587.81;;;24.50;32.54
22753;BME280;11543;43.144;24.684;2023-03-24T13:49:33;98563.50;;;24.37;32.61
22753;BME280;11543;43.144;24.684;2023-03-24T13:52:18;98579.09;;;24.53;32.21
22753;BME280;11543;43.144;24.684;2023-03-24T13:54:46;98572.28;;;24.39;32.48
22753;BME280;11543;43.144;24.684;2023-03-24T13:57:19;98559.50;;;24.28;32.58
22753;BME280;11543;43.144;24.684;2023-03-24T14:05:32;98573.81;;;24.30;31.72
22753;BME280;11543;43.144;24.684;2023-03-24T14:10:37;98560.78;;;24.08;32.60
22753;BME280;11543;43.144;24.684;2023-03-24T14:13:17;98551.91;;;24.01;32.75
22753;BME280;11543;43.144;24.684;2023-03-24T14:15:50;98562.28;;;23.99;33.47
22753;BME280;11543;43.144;24.684;2023-03-24T14:25:56;98528.41;;;23.89;35.18
22753;BME280;11543;43.144;24.684;2023-03-24T14:28:41;98548.75;;;24.09;35.17
22753;BME280;11543;43.144;24.684;2023-03-24T14:36:25;98525.38;;;24.24;32.15
22753;BME280;11543;43.144;24.684;2023-03-24T14:38:55;98527.44;;;24.28;32.22
22753;BME280;11543;43.144;24.684;2023-03-24T14:41:29;98519.91;;;24.24;32.42
22753;BME280;11543;43.144;24.684;2023-03-24T14:43:58;98500.50;;;24.08;33.72
22753;BME280;11543;43.144;24.684;2023-03-24T14:46:41;98519.84;;;24.19;33.30
22753;BME280;11543;43.144;24.684;2023-03-24T14:49:40;98492.69;;;24.00;33.27
22753;BME280;11543;43.144;24.684;2023-03-24T14:52:33;98503.56;;;23.95;32.65
22753;BME280;11543;43.144;24.684;2023-03-24T14:55:03;98512.88;;;23.94;32.78
22753;BME280;11543;43.144;24.684;2023-03-24T14:57:41;98516.09;;;23.91;32.26
22753;BME280;11543;43.144;24.684;2023-03-24T15:00:18;98488.06;;;23.67;32.65
22753;BME280;11543;43.144;24.684;2023-03-24T15:02:55;98531.72;;;23.74;33.55
22753;BME280;11543;43.144;24.684;2023-03-24T15:08:20;98498.97;;;23.50;34.16
22753;BME280;11543;43.144;24.684;2023-03-24T15:11:02;98524.31;;;23.58;34.21
22753;BME280;11543;43.144;24.684;2023-03-24T15:13:33;98531.69;;;23.57;33.23
22753;BME280;11543;43.144;24.684;2023-03-24T15:16:02;98526.84;;;23.47;33.62
22753;BME280;11543;43.144;24.684;2023-03-24T15:18:28;98527.81;;;23.41;35.16
22753;BME280;11543;43.144;24.684;2023-03-24T15:20:54;98505.84;;;23.25;34.06
22753;BME280;11543;43.144;24.684;2023-03-24T15:23:25;98515.97;;;23.24;34.11
22753;BME280;11543;43.144;24.684;2023-03-24T15:25:52;98517.44;;;23.15;35.57
22753;BME280;11543;43.144;24.684;2023-03-24T15:30:47;98498.50;;;22.85;35.50
22753;BME280;11543;43.144;24.684;2023-03-24T15:33:13;98504.81;;;22.85;34.94
22753;BME280;11543;43.144;24.684;2023-03-24T15:35:39;98516.69;;;22.91;34.68
22753;BME280;11543;43.144;24.684;2023-03-24T15:38:05;98506.00;;;22.78;34.68
22753;BME280;11543;43.144;24.684;2023-03-24T15:40:34;98505.44;;;22.64;34.74
22753;BME280;11543;43.144;24.684;2023-03-24T15:43:05;98520.75;;;22.65;35.22
22753;BME280;11543;43.144;24.684;2023-03-24T15:45:42;98482.38;;;22.37;35.28
22753;BME280;11543;43.144;24.684;2023-03-24T15:48:12;98498.09;;;22.30;35.39
22753;BME280;11543;43.144;24.684;2023-03-24T15:50:40;98499.75;;;22.19;35.98
22753;BME280;11543;43.144;24.684;2023-03-24T15:55:43;98508.28;;;21.99;36.84